sensor_id;sensor_type;location;lat;lon;timestamp;P1;durP1;ratioP1;P2;durP2;ratioP2
18738;SDS011;9498;51.862;19.460;2023-06-22T00:00:48;49.90;;;31.00;;
18738;SDS011;9498;51.862;19.460;2023-06-22T00:03:17;46.20;;;29.23;;
18738;SDS011;9498;51.862;19.460;2023-06-22T00:05:44;47.40;;;30.90;;
18738;SDS011;9498;51.862;19.460;2023-06-22T00:08:11;50.10;;;29.70;;
18738;SDS011;9498;51.862;19.460;2023-06-22T00:10:38;44.07;;;28.27;;
18738;SDS011;9498;51.862;19.460;2023-06-22T00:13:06;54.63;;;29.30;;
18738;SDS011;9498;51.862;19.460;2023-06-22T00:15:34;54.83;;;31.17;;
18738;SDS011;9498;51.862;19.460;2023-06-22T00:18:03;51.33;;;31.53;;
18738;SDS011;9498;51.862;19.460;2023-06-22T00:20:30;49.87;;;31.17;;
18738;SDS011;9498;51.862;19.460;2023-06-22T00:22:57;52.87;;;32.40;;
18738;SDS011;9498;51.862;19.460;2023-06-22T00:25:25;56.63;;;34.00;;
18738;SDS011;9498;51.862;19.460;2023-06-22T00:27:52;65.77;;;38.57;;
18738;SDS011;9498;51.862;19.460;2023-06-22T00:30:19;74.90;;;40.53;;
18738;SDS011;9498;51.862;19.460;2023-06-22T00:32:47;74.60;;;40.60;;
18738;SDS011;9498;51.862;19.460;2023-06-22T00:35:15;71.87;;;38.30;;
18738;SDS011;9498;51.862;19.460;2023-06-22T00:37:43;69.87;;;39.83;;
18738;SDS011;9498;51.862;19.460;2023-06-22T00:40:10;67.77;;;39.27;;
18738;SDS011;9498;51.862;19.460;2023-06-22T00:42:39;70.23;;;40.60;;
18738;SDS011;9498;51.862;19.460;2023-06-22T00:45:07;71.43;;;39.90;;
18738;SDS011;9498;51.862;19.460;2023-06-22T00:47:34;71.50;;;40.53;;
18738;SDS011;9498;51.862;19.460;2023-06-22T00:50:03;74.23;;;40.97;;
18738;SDS011;9498;51.862;19.460;2023-06-22T00:52:33;78.43;;;43.07;;
18738;SDS011;9498;51.862;19.460;2023-06-22T00:55:01;85.87;;;45.30;;
18738;SDS011;9498;51.862;19.460;2023-06-22T00:57:28;83.10;;;42.83;;
18738;SDS011;9498;51.862;19.460;2023-06-22T00:59:55;79.70;;;42.83;;
18738;SDS011;9498;51.862;19.460;2023-06-22T01:02:23;74.73;;;39.93;;
18738;SDS011;9498;51.862;19.460;2023-06-22T01:04:50;72.97;;;40.53;;
18738;SDS011;9498;51.862;19.460;2023-06-22T01:07:21;69.33;;;38.27;;
18738;SDS011;9498;51.862;19.460;2023-06-22T01:09:56;68.30;;;39.67;;
18738;SDS011;9498;51.862;19.460;2023-06-22T01:12:24;71.50;;;39.20;;
18738;SDS011;9498;51.862;19.460;2023-06-22T01:14:53;66.70;;;37.10;;
18738;SDS011;9498;51.862;19.460;2023-06-22T01:17:22;66.20;;;37.43;;
18738;SDS011;9498;51.862;19.460;2023-06-22T01:19:50;68.60;;;38.30;;
18738;SDS011;9498;51.862;19.460;2023-06-22T01:22:21;66.23;;;35.30;;
18738;SDS011;9498;51.862;19.460;2023-06-22T01:24:51;65.97;;;36.33;;
18738;SDS011;9498;51.862;19.460;2023-06-22T01:27:28;66.00;;;35.23;;
18738;SDS011;9498;51.862;19.460;2023-06-22T01:30:00;67.77;;;37.20;;
18738;SDS011;9498;51.862;19.460;2023-06-22T01:32:30;75.83;;;39.50;;
18738;SDS011;9498;51.862;19.460;2023-06-22T01:34:58;66.20;;;37.07;;
18738;SDS011;9498;51.862;19.460;2023-06-22T01:37:27;72.00;;;36.63;;
18738;SDS011;9498;51.862;19.460;2023-06-22T01:39:55;67.23;;;37.93;;
18738;SDS011;9498;51.862;19.460;2023-06-22T01:42:23;66.37;;;36.30;;
18738;SDS011;9498;51.862;19.460;2023-06-22T01:44:50;65.07;;;35.47;;
18738;SDS011;9498;51.862;19.460;2023-06-22T01:47:20;66.03;;;36.60;;
18738;SDS011;9498;51.862;19.460;2023-06-22T01:49:47;62.23;;;35.13;;
18738;SDS011;9498;51.862;19.460;2023-06-22T01:52:16;69.67;;;36.73;;
18738;SDS011;9498;51.862;19.460;2023-06-22T01:54:45;64.33;;;35.00;;
18738;SDS011;9498;51.862;19.460;2023-06-22T01:57:13;63.97;;;34.80;;
18738;SDS011;9498;51.862;19.460;2023-06-22T01:59:42;68.90;;;35.67;;
18738;SDS011;9498;51.862;19.460;2023-06-22T02:02:13;70.53;;;36.00;;
18738;SDS011;9498;51.862;19.460;2023-06-22T02:04:44;67.33;;;34.50;;
18738;SDS011;9498;51.862;19.460;2023-06-22T02:07:13;56.63;;;31.53;;
18738;SDS011;9498;51.862;19.460;2023-06-22T02:09:42;60.13;;;32.77;;
18738;SDS011;9498;51.862;19.460;2023-06-22T02:12:10;58.93;;;32.53;;
18738;SDS011;9498;51.862;19.460;2023-06-22T02:14:38;59.13;;;34.13;;
18738;SDS011;9498;51.862;19.460;2023-06-22T02:17:07;59.90;;;32.43;;
18738;SDS011;9498;51.862;19.460;2023-06-22T02:19:36;55.50;;;31.23;;
18738;SDS011;9498;51.862;19.460;2023-06-22T02:22:04;51.63;;;30.40;;
18738;SDS011;9498;51.862;19.460;2023-06-22T02:24:32;57.03;;;30.83;;
18738;SDS011;9498;51.862;19.460;2023-06-22T02:26:59;58.57;;;30.90;;
18738;SDS011;9498;51.862;19.460;2023-06-22T02:29:26;51.40;;;29.17;;
18738;SDS011;9498;51.862;19.460;2023-06-22T02:31:54;59.43;;;31.03;;
18738;SDS011;9498;51.862;19.460;2023-06-22T02:34:21;57.50;;;32.10;;
18738;SDS011;9498;51.862;19.460;2023-06-22T02:36:49;53.77;;;30.53;;
18738;SDS011;9498;51.862;19.460;2023-06-22T02:39:19;54.93;;;30.70;;
18738;SDS011;9498;51.862;19.460;2023-06-22T02:41:47;47.27;;;27.80;;
18738;SDS011;9498;51.862;19.460;2023-06-22T02:44:14;48.37;;;28.23;;
18738;SDS011;9498;51.862;19.460;2023-06-22T02:46:42;54.57;;;29.47;;
18738;SDS011;9498;51.862;19.460;2023-06-22T02:49:09;59.97;;;30.67;;
18738;SDS011;9498;51.862;19.460;2023-06-22T02:51:38;64.40;;;30.47;;
18738;SDS011;9498;51.862;19.460;2023-06-22T02:54:05;57.07;;;29.40;;
18738;SDS011;9498;51.862;19.460;2023-06-22T02:56:34;53.33;;;28.73;;
18738;SDS011;9498;51.862;19.460;2023-06-22T02:59:01;56.30;;;30.37;;
18738;SDS011;9498;51.862;19.460;2023-06-22T03:01:29;52.23;;;29.20;;
18738;SDS011;9498;51.862;19.460;2023-06-22T03:04:02;55.80;;;28.80;;
18738;SDS011;9498;51.862;19.460;2023-06-22T03:06:30;58.03;;;31.07;;
18738;SDS011;9498;51.862;19.460;2023-06-22T03:08:58;55.33;;;30.13;;
18738;SDS011;9498;51.862;19.460;2023-06-22T03:11:26;55.63;;;30.67;;
18738;SDS011;9498;51.862;19.460;2023-06-22T03:13:54;53.97;;;30.20;;
18738;SDS011;9498;51.862;19.460;2023-06-22T03:16:21;58.87;;;29.23;;
18738;SDS011;9498;51.862;19.460;2023-06-22T03:18:50;50.17;;;28.40;;
18738;SDS011;9498;51.862;19.460;2023-06-22T03:21:18;52.07;;;27.63;;
18738;SDS011;9498;51.862;19.460;2023-06-22T03:23:45;59.67;;;29.07;;
18738;SDS011;9498;51.862;19.460;2023-06-22T03:26:12;47.37;;;27.00;;
18738;SDS011;9498;51.862;19.460;2023-06-22T03:28:40;47.53;;;26.43;;
18738;SDS011;9498;51.862;19.460;2023-06-22T03:31:08;47.90;;;26.93;;
18738;SDS011;9498;51.862;19.460;2023-06-22T03:33:35;48.23;;;27.53;;
18738;SDS011;9498;51.862;19.460;2023-06-22T03:36:03;48.87;;;27.17;;
18738;SDS011;9498;51.862;19.460;2023-06-22T03:38:30;48.83;;;27.17;;
18738;SDS011;9498;51.862;19.460;2023-06-22T03:40:57;51.73;;;28.70;;
18738;SDS011;9498;51.862;19.460;2023-06-22T03:43:24;50.23;;;27.80;;
18738;SDS011;9498;51.862;19.460;2023-06-22T03:45:52;53.10;;;28.63;;
18738;SDS011;9498;51.862;19.460;2023-06-22T03:48:20;49.73;;;28.20;;
18738;SDS011;9498;51.862;19.460;2023-06-22T03:50:47;50.97;;;27.53;;
18738;SDS011;9498;51.862;19.460;2023-06-22T03:53:15;42.47;;;25.20;;
18738;SDS011;9498;51.862;19.460;2023-06-22T03:55:47;41.73;;;25.37;;
18738;SDS011;9498;51.862;19.460;2023-06-22T03:58:15;41.20;;;23.87;;
18738;SDS011;9498;51.862;19.460;2023-06-22T04:00:44;37.97;;;23.43;;
18738;SDS011;9498;51.862;19.460;2023-06-22T04:03:11;43.27;;;24.40;;
18738;SDS011;9498;51.862;19.460;2023-06-22T04:05:40;36.47;;;22.90;;
18738;SDS011;9498;51.862;19.460;2023-06-22T04:08:08;39.80;;;22.77;;
18738;SDS011;9498;51.862;19.460;2023-06-22T04:10:35;38.87;;;21.83;;
18738;SDS011;9498;51.862;19.460;2023-06-22T04:13:02;34.67;;;20.70;;
18738;SDS011;9498;51.862;19.460;2023-06-22T04:15:29;35.17;;;20.83;;
18738;SDS011;9498;51.862;19.460;2023-06-22T04:17:57;29.00;;;18.03;;
18738;SDS011;9498;51.862;19.460;2023-06-22T04:20:24;32.47;;;19.00;;
18738;SDS011;9498;51.862;19.460;2023-06-22T04:22:53;29.00;;;17.07;;
18738;SDS011;9498;51.862;19.460;2023-06-22T04:25:20;32.30;;;17.23;;
18738;SDS011;9498;51.862;19.460;2023-06-22T04:27:48;25.70;;;16.33;;
18738;SDS011;9498;51.862;19.460;2023-06-22T04:30:16;26.90;;;17.50;;
18738;SDS011;9498;51.862;19.460;2023-06-22T04:32:43;27.37;;;15.67;;
18738;SDS011;9498;51.862;19.460;2023-06-22T04:35:11;21.87;;;14.70;;
18738;SDS011;9498;51.862;19.460;2023-06-22T04:37:38;25.17;;;14.53;;
18738;SDS011;9498;51.862;19.460;2023-06-22T04:40:07;22.60;;;13.87;;
18738;SDS011;9498;51.862;19.460;2023-06-22T04:42:35;21.20;;;14.10;;
18738;SDS011;9498;51.862;19.460;2023-06-22T04:45:02;19.57;;;13.40;;
18738;SDS011;9498;51.862;19.460;2023-06-22T04:47:30;20.40;;;13.60;;
18738;SDS011;9498;51.862;19.460;2023-06-22T04:49:57;20.83;;;13.07;;
18738;SDS011;9498;51.862;19.460;2023-06-22T04:52:24;21.07;;;13.47;;
18738;SDS011;9498;51.862;19.460;2023-06-22T04:54:51;20.70;;;12.87;;
18738;SDS011;9498;51.862;19.460;2023-06-22T04:57:22;23.73;;;14.07;;
18738;SDS011;9498;51.862;19.460;2023-06-22T04:59:57;23.30;;;12.90;;
18738;SDS011;9498;51.862;19.460;2023-06-22T05:02:27;21.43;;;12.37;;
18738;SDS011;9498;51.862;19.460;2023-06-22T05:04:57;27.27;;;13.17;;
18738;SDS011;9498;51.862;19.460;2023-06-22T05:07:24;17.73;;;11.40;;
18738;SDS011;9498;51.862;19.460;2023-06-22T05:09:51;18.27;;;11.47;;
18738;SDS011;9498;51.862;19.460;2023-06-22T05:12:18;20.53;;;12.80;;
18738;SDS011;9498;51.862;19.460;2023-06-22T05:14:47;19.57;;;11.90;;
18738;SDS011;9498;51.862;19.460;2023-06-22T05:17:14;19.57;;;11.77;;
18738;SDS011;9498;51.862;19.460;2023-06-22T05:19:44;21.33;;;11.60;;
18738;SDS011;9498;51.862;19.460;2023-06-22T05:22:13;17.30;;;10.60;;
18738;SDS011;9498;51.862;19.460;2023-06-22T05:24:40;17.37;;;10.73;;
18738;SDS011;9498;51.862;19.460;2023-06-22T05:27:07;15.63;;;10.53;;
18738;SDS011;9498;51.862;19.460;2023-06-22T05:29:35;16.60;;;10.47;;
18738;SDS011;9498;51.862;19.460;2023-06-22T05:32:04;20.67;;;11.07;;
18738;SDS011;9498;51.862;19.460;2023-06-22T05:34:31;15.37;;;10.17;;
18738;SDS011;9498;51.862;19.460;2023-06-22T05:36:59;20.43;;;9.83;;
18738;SDS011;9498;51.862;19.460;2023-06-22T05:39:26;17.47;;;10.67;;
18738;SDS011;9498;51.862;19.460;2023-06-22T05:41:53;19.40;;;10.27;;
18738;SDS011;9498;51.862;19.460;2023-06-22T05:44:21;18.37;;;10.27;;
18738;SDS011;9498;51.862;19.460;2023-06-22T05:46:48;14.50;;;10.13;;
18738;SDS011;9498;51.862;19.460;2023-06-22T05:49:16;16.03;;;9.13;;
18738;SDS011;9498;51.862;19.460;2023-06-22T05:51:44;17.60;;;9.47;;
18738;SDS011;9498;51.862;19.460;2023-06-22T05:54:11;13.73;;;8.30;;
18738;SDS011;9498;51.862;19.460;2023-06-22T05:56:40;13.63;;;9.03;;
18738;SDS011;9498;51.862;19.460;2023-06-22T05:59:08;14.67;;;8.53;;
18738;SDS011;9498;51.862;19.460;2023-06-22T06:01:35;16.27;;;9.47;;
18738;SDS011;9498;51.862;19.460;2023-06-22T06:04:02;16.87;;;8.63;;
18738;SDS011;9498;51.862;19.460;2023-06-22T06:06:31;17.10;;;8.30;;
18738;SDS011;9498;51.862;19.460;2023-06-22T06:09:02;13.30;;;8.37;;
18738;SDS011;9498;51.862;19.460;2023-06-22T06:11:29;11.60;;;8.27;;
18738;SDS011;9498;51.862;19.460;2023-06-22T06:13:56;10.90;;;7.43;;
18738;SDS011;9498;51.862;19.460;2023-06-22T06:16:23;13.60;;;7.80;;
18738;SDS011;9498;51.862;19.460;2023-06-22T06:18:51;11.57;;;7.70;;
18738;SDS011;9498;51.862;19.460;2023-06-22T06:21:19;8.43;;;6.43;;
18738;SDS011;9498;51.862;19.460;2023-06-22T06:23:48;13.33;;;7.10;;
18738;SDS011;9498;51.862;19.460;2023-06-22T06:26:15;13.00;;;7.50;;
18738;SDS011;9498;51.862;19.460;2023-06-22T06:28:42;10.00;;;6.40;;
18738;SDS011;9498;51.862;19.460;2023-06-22T06:31:10;12.77;;;6.20;;
18738;SDS011;9498;51.862;19.460;2023-06-22T06:33:42;13.70;;;7.03;;
18738;SDS011;9498;51.862;19.460;2023-06-22T06:36:09;9.97;;;6.97;;
18738;SDS011;9498;51.862;19.460;2023-06-22T06:38:36;12.53;;;6.80;;
18738;SDS011;9498;51.862;19.460;2023-06-22T06:41:05;12.90;;;6.77;;
18738;SDS011;9498;51.862;19.460;2023-06-22T06:43:32;12.30;;;6.73;;
18738;SDS011;9498;51.862;19.460;2023-06-22T06:45:59;15.80;;;6.33;;
18738;SDS011;9498;51.862;19.460;2023-06-22T06:48:28;10.50;;;6.27;;
18738;SDS011;9498;51.862;19.460;2023-06-22T06:50:55;8.13;;;5.20;;
18738;SDS011;9498;51.862;19.460;2023-06-22T06:53:22;10.27;;;5.73;;
18738;SDS011;9498;51.862;19.460;2023-06-22T06:55:49;10.50;;;5.83;;
18738;SDS011;9498;51.862;19.460;2023-06-22T06:58:18;9.77;;;5.77;;
18738;SDS011;9498;51.862;19.460;2023-06-22T07:00:45;10.80;;;5.80;;
18738;SDS011;9498;51.862;19.460;2023-06-22T07:03:12;9.85;;;6.00;;
18738;SDS011;9498;51.862;19.460;2023-06-22T07:05:39;12.00;;;7.37;;
18738;SDS011;9498;51.862;19.460;2023-06-22T07:08:07;11.27;;;7.10;;
18738;SDS011;9498;51.862;19.460;2023-06-22T07:10:34;13.97;;;6.73;;
18738;SDS011;9498;51.862;19.460;2023-06-22T07:13:01;9.88;;;6.68;;
18738;SDS011;9498;51.862;19.460;2023-06-22T07:15:30;11.73;;;5.97;;
18738;SDS011;9498;51.862;19.460;2023-06-22T07:17:57;9.27;;;5.20;;
18738;SDS011;9498;51.862;19.460;2023-06-22T07:20:24;10.47;;;5.20;;
18738;SDS011;9498;51.862;19.460;2023-06-22T07:22:51;9.50;;;5.32;;
18738;SDS011;9498;51.862;19.460;2023-06-22T07:25:19;9.57;;;4.73;;
18738;SDS011;9498;51.862;19.460;2023-06-22T07:27:56;7.97;;;4.87;;
18738;SDS011;9498;51.862;19.460;2023-06-22T07:30:23;8.23;;;4.90;;
18738;SDS011;9498;51.862;19.460;2023-06-22T07:32:52;9.73;;;4.70;;
18738;SDS011;9498;51.862;19.460;2023-06-22T07:35:19;7.27;;;4.47;;
18738;SDS011;9498;51.862;19.460;2023-06-22T07:37:46;8.07;;;4.67;;
18738;SDS011;9498;51.862;19.460;2023-06-22T07:40:13;7.30;;;4.67;;
18738;SDS011;9498;51.862;19.460;2023-06-22T07:42:41;8.80;;;5.32;;
18738;SDS011;9498;51.862;19.460;2023-06-22T07:45:08;8.47;;;4.77;;
18738;SDS011;9498;51.862;19.460;2023-06-22T07:47:35;8.43;;;4.90;;
18738;SDS011;9498;51.862;19.460;2023-06-22T07:50:04;8.17;;;4.67;;
18738;SDS011;9498;51.862;19.460;2023-06-22T07:52:32;14.17;;;4.80;;
18738;SDS011;9498;51.862;19.460;2023-06-22T07:54:59;7.00;;;4.70;;
18738;SDS011;9498;51.862;19.460;2023-06-22T07:57:27;8.17;;;4.57;;
18738;SDS011;9498;51.862;19.460;2023-06-22T07:59:58;12.07;;;4.87;;
18738;SDS011;9498;51.862;19.460;2023-06-22T08:02:26;9.10;;;4.67;;
18738;SDS011;9498;51.862;19.460;2023-06-22T08:04:53;10.33;;;4.67;;
18738;SDS011;9498;51.862;19.460;2023-06-22T08:07:21;9.70;;;5.30;;
18738;SDS011;9498;51.862;19.460;2023-06-22T08:09:48;9.10;;;4.93;;
18738;SDS011;9498;51.862;19.460;2023-06-22T08:12:16;7.33;;;4.33;;
18738;SDS011;9498;51.862;19.460;2023-06-22T08:14:43;8.13;;;3.97;;
18738;SDS011;9498;51.862;19.460;2023-06-22T08:17:11;7.00;;;3.95;;
18738;SDS011;9498;51.862;19.460;2023-06-22T08:19:39;5.57;;;3.60;;
18738;SDS011;9498;51.862;19.460;2023-06-22T08:22:07;7.27;;;3.87;;
18738;SDS011;9498;51.862;19.460;2023-06-22T08:24:35;8.10;;;3.70;;
18738;SDS011;9498;51.862;19.460;2023-06-22T08:27:03;10.97;;;3.70;;
18738;SDS011;9498;51.862;19.460;2023-06-22T08:29:30;9.47;;;3.93;;
18738;SDS011;9498;51.862;19.460;2023-06-22T08:31:57;10.13;;;4.15;;
18738;SDS011;9498;51.862;19.460;2023-06-22T08:34:24;9.80;;;3.87;;
18738;SDS011;9498;51.862;19.460;2023-06-22T08:36:53;6.70;;;4.10;;
18738;SDS011;9498;51.862;19.460;2023-06-22T08:39:20;6.90;;;4.00;;
18738;SDS011;9498;51.862;19.460;2023-06-22T08:41:48;8.70;;;4.43;;
18738;SDS011;9498;51.862;19.460;2023-06-22T08:44:18;6.87;;;3.33;;
18738;SDS011;9498;51.862;19.460;2023-06-22T08:46:45;6.80;;;3.30;;
18738;SDS011;9498;51.862;19.460;2023-06-22T08:49:12;7.00;;;3.17;;
18738;SDS011;9498;51.862;19.460;2023-06-22T08:51:40;5.43;;;3.37;;
18738;SDS011;9498;51.862;19.460;2023-06-22T08:54:07;6.27;;;3.10;;
18738;SDS011;9498;51.862;19.460;2023-06-22T08:56:35;7.07;;;3.03;;
18738;SDS011;9498;51.862;19.460;2023-06-22T08:59:03;9.20;;;3.30;;
18738;SDS011;9498;51.862;19.460;2023-06-22T09:01:32;6.27;;;3.07;;
18738;SDS011;9498;51.862;19.460;2023-06-22T09:03:59;4.20;;;2.80;;
18738;SDS011;9498;51.862;19.460;2023-06-22T09:06:27;7.10;;;3.10;;
18738;SDS011;9498;51.862;19.460;2023-06-22T09:08:56;6.67;;;3.20;;
18738;SDS011;9498;51.862;19.460;2023-06-22T09:11:24;7.22;;;2.97;;
18738;SDS011;9498;51.862;19.460;2023-06-22T09:13:52;12.83;;;3.20;;
18738;SDS011;9498;51.862;19.460;2023-06-22T09:16:20;10.70;;;3.70;;
18738;SDS011;9498;51.862;19.460;2023-06-22T09:18:47;4.83;;;3.17;;
18738;SDS011;9498;51.862;19.460;2023-06-22T09:21:15;5.40;;;3.40;;
18738;SDS011;9498;51.862;19.460;2023-06-22T09:23:42;5.23;;;3.20;;
18738;SDS011;9498;51.862;19.460;2023-06-22T09:26:12;7.22;;;3.70;;
18738;SDS011;9498;51.862;19.460;2023-06-22T09:28:39;5.73;;;3.70;;
18738;SDS011;9498;51.862;19.460;2023-06-22T09:31:06;7.30;;;3.53;;
18738;SDS011;9498;51.862;19.460;2023-06-22T09:33:35;6.47;;;3.10;;
18738;SDS011;9498;51.862;19.460;2023-06-22T09:36:03;5.77;;;3.00;;
18738;SDS011;9498;51.862;19.460;2023-06-22T09:38:33;5.97;;;3.23;;
18738;SDS011;9498;51.862;19.460;2023-06-22T09:41:01;5.80;;;3.03;;
18738;SDS011;9498;51.862;19.460;2023-06-22T09:43:28;5.90;;;3.30;;
18738;SDS011;9498;51.862;19.460;2023-06-22T09:45:55;5.37;;;2.80;;
18738;SDS011;9498;51.862;19.460;2023-06-22T09:48:23;3.77;;;2.87;;
18738;SDS011;9498;51.862;19.460;2023-06-22T09:50:51;5.43;;;3.17;;
18738;SDS011;9498;51.862;19.460;2023-06-22T09:53:18;6.17;;;2.97;;
18738;SDS011;9498;51.862;19.460;2023-06-22T09:55:46;10.03;;;3.50;;
18738;SDS011;9498;51.862;19.460;2023-06-22T09:58:13;5.93;;;2.93;;
18738;SDS011;9498;51.862;19.460;2023-06-22T10:00:40;5.70;;;2.90;;
18738;SDS011;9498;51.862;19.460;2023-06-22T10:03:07;5.23;;;3.33;;
18738;SDS011;9498;51.862;19.460;2023-06-22T10:05:35;7.40;;;3.07;;
18738;SDS011;9498;51.862;19.460;2023-06-22T10:08:03;4.27;;;2.80;;
18738;SDS011;9498;51.862;19.460;2023-06-22T10:10:32;4.80;;;2.83;;
18738;SDS011;9498;51.862;19.460;2023-06-22T10:13:02;6.07;;;2.77;;
18738;SDS011;9498;51.862;19.460;2023-06-22T10:15:29;6.20;;;2.90;;
18738;SDS011;9498;51.862;19.460;2023-06-22T10:17:57;6.50;;;2.70;;
18738;SDS011;9498;51.862;19.460;2023-06-22T10:20:24;4.67;;;2.93;;
18738;SDS011;9498;51.862;19.460;2023-06-22T10:22:51;8.77;;;3.53;;
18738;SDS011;9498;51.862;19.460;2023-06-22T10:25:21;7.63;;;3.07;;
18738;SDS011;9498;51.862;19.460;2023-06-22T10:27:48;5.03;;;2.93;;
18738;SDS011;9498;51.862;19.460;2023-06-22T10:30:15;6.73;;;3.10;;
18738;SDS011;9498;51.862;19.460;2023-06-22T10:32:42;4.63;;;2.97;;
18738;SDS011;9498;51.862;19.460;2023-06-22T10:35:10;3.90;;;2.77;;
18738;SDS011;9498;51.862;19.460;2023-06-22T10:37:38;6.20;;;2.80;;
18738;SDS011;9498;51.862;19.460;2023-06-22T10:40:08;5.67;;;2.63;;
18738;SDS011;9498;51.862;19.460;2023-06-22T10:42:37;7.83;;;2.70;;
18738;SDS011;9498;51.862;19.460;2023-06-22T10:45:04;6.97;;;2.70;;
18738;SDS011;9498;51.862;19.460;2023-06-22T10:47:32;6.77;;;3.30;;
18738;SDS011;9498;51.862;19.460;2023-06-22T10:49:59;6.73;;;3.33;;
18738;SDS011;9498;51.862;19.460;2023-06-22T10:52:26;6.03;;;3.20;;
18738;SDS011;9498;51.862;19.460;2023-06-22T10:54:53;6.40;;;3.30;;
18738;SDS011;9498;51.862;19.460;2023-06-22T10:57:21;6.50;;;3.33;;
18738;SDS011;9498;51.862;19.460;2023-06-22T10:59:50;4.90;;;3.40;;
18738;SDS011;9498;51.862;19.460;2023-06-22T11:02:17;6.07;;;3.13;;
18738;SDS011;9498;51.862;19.460;2023-06-22T11:04:44;6.00;;;3.37;;
18738;SDS011;9498;51.862;19.460;2023-06-22T11:07:12;6.37;;;3.23;;
18738;SDS011;9498;51.862;19.460;2023-06-22T11:09:39;5.57;;;2.93;;
18738;SDS011;9498;51.862;19.460;2023-06-22T11:12:07;5.67;;;3.03;;
18738;SDS011;9498;51.862;19.460;2023-06-22T11:14:34;6.33;;;3.00;;
18738;SDS011;9498;51.862;19.460;2023-06-22T11:17:03;9.03;;;3.00;;
18738;SDS011;9498;51.862;19.460;2023-06-22T11:19:30;6.53;;;2.90;;
18738;SDS011;9498;51.862;19.460;2023-06-22T11:21:57;5.40;;;3.30;;
18738;SDS011;9498;51.862;19.460;2023-06-22T11:24:24;5.27;;;2.60;;
18738;SDS011;9498;51.862;19.460;2023-06-22T11:26:51;5.23;;;2.83;;
18738;SDS011;9498;51.862;19.460;2023-06-22T11:29:18;4.07;;;2.60;;
18738;SDS011;9498;51.862;19.460;2023-06-22T11:31:46;2.97;;;2.27;;
18738;SDS011;9498;51.862;19.460;2023-06-22T11:34:15;3.53;;;2.60;;
18738;SDS011;9498;51.862;19.460;2023-06-22T11:36:42;5.57;;;2.70;;
18738;SDS011;9498;51.862;19.460;2023-06-22T11:39:10;4.03;;;2.73;;
18738;SDS011;9498;51.862;19.460;2023-06-22T11:41:39;4.03;;;2.53;;
18738;SDS011;9498;51.862;19.460;2023-06-22T11:44:07;4.60;;;2.67;;
18738;SDS011;9498;51.862;19.460;2023-06-22T11:46:34;4.83;;;2.90;;
18738;SDS011;9498;51.862;19.460;2023-06-22T11:49:02;5.73;;;3.23;;
18738;SDS011;9498;51.862;19.460;2023-06-22T11:51:30;4.77;;;3.03;;
18738;SDS011;9498;51.862;19.460;2023-06-22T11:53:57;8.90;;;3.03;;
18738;SDS011;9498;51.862;19.460;2023-06-22T11:56:25;6.03;;;2.70;;
18738;SDS011;9498;51.862;19.460;2023-06-22T11:58:53;4.53;;;2.93;;
18738;SDS011;9498;51.862;19.460;2023-06-22T12:01:20;5.00;;;2.77;;
18738;SDS011;9498;51.862;19.460;2023-06-22T12:03:47;5.17;;;3.10;;
18738;SDS011;9498;51.862;19.460;2023-06-22T12:06:14;7.97;;;3.43;;
18738;SDS011;9498;51.862;19.460;2023-06-22T12:08:43;3.70;;;2.90;;
18738;SDS011;9498;51.862;19.460;2023-06-22T12:11:10;7.17;;;3.43;;
18738;SDS011;9498;51.862;19.460;2023-06-22T12:13:37;5.17;;;3.50;;
18738;SDS011;9498;51.862;19.460;2023-06-22T12:16:05;5.67;;;3.37;;
18738;SDS011;9498;51.862;19.460;2023-06-22T12:18:32;12.33;;;3.33;;
18738;SDS011;9498;51.862;19.460;2023-06-22T12:20:59;4.80;;;3.07;;
18738;SDS011;9498;51.862;19.460;2023-06-22T12:23:27;6.97;;;3.30;;
18738;SDS011;9498;51.862;19.460;2023-06-22T12:25:55;5.80;;;3.30;;
18738;SDS011;9498;51.862;19.460;2023-06-22T12:28:23;4.70;;;3.30;;
18738;SDS011;9498;51.862;19.460;2023-06-22T12:30:50;7.07;;;3.10;;
18738;SDS011;9498;51.862;19.460;2023-06-22T12:33:17;6.63;;;3.23;;
18738;SDS011;9498;51.862;19.460;2023-06-22T12:35:45;4.60;;;3.07;;
18738;SDS011;9498;51.862;19.460;2023-06-22T12:38:14;5.17;;;3.00;;
18738;SDS011;9498;51.862;19.460;2023-06-22T12:40:41;6.93;;;3.63;;
18738;SDS011;9498;51.862;19.460;2023-06-22T12:43:09;5.63;;;3.37;;
18738;SDS011;9498;51.862;19.460;2023-06-22T12:45:37;7.57;;;3.10;;
18738;SDS011;9498;51.862;19.460;2023-06-22T12:48:04;8.47;;;3.40;;
18738;SDS011;9498;51.862;19.460;2023-06-22T12:50:31;6.20;;;3.10;;
18738;SDS011;9498;51.862;19.460;2023-06-22T12:52:59;5.13;;;3.33;;
18738;SDS011;9498;51.862;19.460;2023-06-22T12:55:27;11.33;;;3.73;;
18738;SDS011;9498;51.862;19.460;2023-06-22T12:57:54;7.77;;;3.43;;
18738;SDS011;9498;51.862;19.460;2023-06-22T13:00:23;7.57;;;3.70;;
18738;SDS011;9498;51.862;19.460;2023-06-22T13:02:50;6.47;;;3.47;;
18738;SDS011;9498;51.862;19.460;2023-06-22T13:05:17;6.13;;;3.60;;
18738;SDS011;9498;51.862;19.460;2023-06-22T13:07:44;5.20;;;3.27;;
18738;SDS011;9498;51.862;19.460;2023-06-22T13:10:11;8.80;;;3.50;;
18738;SDS011;9498;51.862;19.460;2023-06-22T13:12:39;6.37;;;3.70;;
18738;SDS011;9498;51.862;19.460;2023-06-22T13:15:06;4.93;;;3.60;;
18738;SDS011;9498;51.862;19.460;2023-06-22T13:17:35;7.90;;;3.60;;
18738;SDS011;9498;51.862;19.460;2023-06-22T13:20:02;6.87;;;3.30;;
18738;SDS011;9498;51.862;19.460;2023-06-22T13:22:31;6.30;;;3.90;;
18738;SDS011;9498;51.862;19.460;2023-06-22T13:24:59;7.73;;;3.47;;
18738;SDS011;9498;51.862;19.460;2023-06-22T13:27:27;7.03;;;3.83;;
18738;SDS011;9498;51.862;19.460;2023-06-22T13:29:54;5.97;;;3.53;;
18738;SDS011;9498;51.862;19.460;2023-06-22T13:32:21;8.23;;;3.63;;
18738;SDS011;9498;51.862;19.460;2023-06-22T13:34:50;5.37;;;3.67;;
18738;SDS011;9498;51.862;19.460;2023-06-22T13:37:18;8.00;;;3.33;;
18738;SDS011;9498;51.862;19.460;2023-06-22T13:39:45;6.50;;;3.43;;
18738;SDS011;9498;51.862;19.460;2023-06-22T13:42:12;6.93;;;3.57;;
18738;SDS011;9498;51.862;19.460;2023-06-22T13:44:39;6.67;;;3.20;;
18738;SDS011;9498;51.862;19.460;2023-06-22T13:47:07;7.03;;;3.30;;
18738;SDS011;9498;51.862;19.460;2023-06-22T13:49:34;3.93;;;3.07;;
18738;SDS011;9498;51.862;19.460;2023-06-22T13:52:03;4.07;;;2.90;;
18738;SDS011;9498;51.862;19.460;2023-06-22T13:54:31;8.87;;;3.33;;
18738;SDS011;9498;51.862;19.460;2023-06-22T13:56:59;7.17;;;3.10;;
18738;SDS011;9498;51.862;19.460;2023-06-22T13:59:26;10.90;;;3.60;;
18738;SDS011;9498;51.862;19.460;2023-06-22T14:01:53;10.07;;;3.50;;
18738;SDS011;9498;51.862;19.460;2023-06-22T14:04:21;5.33;;;3.10;;
18738;SDS011;9498;51.862;19.460;2023-06-22T14:06:48;5.73;;;3.30;;
18738;SDS011;9498;51.862;19.460;2023-06-22T14:09:17;5.87;;;3.27;;
18738;SDS011;9498;51.862;19.460;2023-06-22T14:11:44;3.67;;;2.90;;
18738;SDS011;9498;51.862;19.460;2023-06-22T14:14:11;7.40;;;3.53;;
18738;SDS011;9498;51.862;19.460;2023-06-22T14:16:38;5.20;;;2.87;;
18738;SDS011;9498;51.862;19.460;2023-06-22T14:19:05;7.67;;;3.07;;
18738;SDS011;9498;51.862;19.460;2023-06-22T14:21:32;5.07;;;3.30;;
18738;SDS011;9498;51.862;19.460;2023-06-22T14:24:00;5.57;;;3.00;;
18738;SDS011;9498;51.862;19.460;2023-06-22T14:26:28;9.20;;;3.20;;
18738;SDS011;9498;51.862;19.460;2023-06-22T14:28:55;4.30;;;2.83;;
18738;SDS011;9498;51.862;19.460;2023-06-22T14:31:22;5.83;;;2.83;;
18738;SDS011;9498;51.862;19.460;2023-06-22T14:33:50;5.40;;;3.00;;
18738;SDS011;9498;51.862;19.460;2023-06-22T14:36:17;3.83;;;2.90;;
18738;SDS011;9498;51.862;19.460;2023-06-22T14:38:44;4.43;;;2.77;;